Holdridge, Nebraska
Current Conditions -  °F | °C
As of 2:55 PM on Thursday 18 Dec 2014 (Local Time) from KHDE Reporting Station
Overcast Overcast  
Wind Chill: -6°   Ceiling: 1200
Heat Index: -2°   Visibility: 10mi
Dew Point: -4°   Wind: 9mph
Humidity: 84%   Direction: 260°W
Pressure: 30.1"   Gusts: NA
Location:  40.4958°N, 99.3198°W
Report Text: KHDE 182055Z AUTO 26008KT 10SM OVC012 M01/M04 A3010 RMK AO2 T10151039
Loading
Personal Weather Stations






























Interactive Weather Map New forecast layout! Learn more

10-Day Weather Forecast

Advertisements
Track Severe Weather on mobile